sensor_id;sensor_type;location;lat;lon;timestamp;P1;durP1;ratioP1;P2;durP2;ratioP2
27802;SDS011;15182;48.174;11.562;2022-12-18T00:00:30;42.50;;;20.60;;
27802;SDS011;15182;48.174;11.562;2022-12-18T00:03:04;39.87;;;20.10;;
27802;SDS011;15182;48.174;11.562;2022-12-18T00:05:35;43.53;;;20.63;;
27802;SDS011;15182;48.174;11.562;2022-12-18T00:08:13;44.23;;;19.97;;
27802;SDS011;15182;48.174;11.562;2022-12-18T00:10:45;39.70;;;19.40;;
27802;SDS011;15182;48.174;11.562;2022-12-18T00:13:18;43.10;;;19.37;;
27802;SDS011;15182;48.174;11.562;2022-12-18T00:15:49;47.63;;;20.20;;
27802;SDS011;15182;48.174;11.562;2022-12-18T00:18:20;38.40;;;19.73;;
27802;SDS011;15182;48.174;11.562;2022-12-18T00:20:51;46.80;;;20.10;;
27802;SDS011;15182;48.174;11.562;2022-12-18T00:23:27;38.93;;;19.57;;
27802;SDS011;15182;48.174;11.562;2022-12-18T00:26:00;41.40;;;20.73;;
27802;SDS011;15182;48.174;11.562;2022-12-18T00:28:36;40.17;;;19.77;;
27802;SDS011;15182;48.174;11.562;2022-12-18T00:31:08;43.33;;;20.10;;
27802;SDS011;15182;48.174;11.562;2022-12-18T00:33:44;47.43;;;21.10;;
27802;SDS011;15182;48.174;11.562;2022-12-18T00:36:17;41.43;;;19.63;;
27802;SDS011;15182;48.174;11.562;2022-12-18T00:38:52;36.13;;;18.27;;
27802;SDS011;15182;48.174;11.562;2022-12-18T00:41:24;40.90;;;20.07;;
27802;SDS011;15182;48.174;11.562;2022-12-18T00:44:16;46.57;;;19.80;;
27802;SDS011;15182;48.174;11.562;2022-12-18T00:46:50;40.77;;;19.93;;
27802;SDS011;15182;48.174;11.562;2022-12-18T00:49:21;43.43;;;20.47;;
27802;SDS011;15182;48.174;11.562;2022-12-18T00:51:55;43.20;;;20.07;;
27802;SDS011;15182;48.174;11.562;2022-12-18T00:54:26;47.47;;;19.90;;
27802;SDS011;15182;48.174;11.562;2022-12-18T00:56:58;41.53;;;19.87;;
27802;SDS011;15182;48.174;11.562;2022-12-18T00:59:30;39.17;;;17.73;;
27802;SDS011;15182;48.174;11.562;2022-12-18T01:02:02;39.70;;;19.67;;
27802;SDS011;15182;48.174;11.562;2022-12-18T01:04:33;41.30;;;19.20;;
27802;SDS011;15182;48.174;11.562;2022-12-18T01:07:04;36.67;;;18.67;;
27802;SDS011;15182;48.174;11.562;2022-12-18T01:09:36;36.77;;;18.03;;
27802;SDS011;15182;48.174;11.562;2022-12-18T01:12:07;38.27;;;18.20;;
27802;SDS011;15182;48.174;11.562;2022-12-18T01:14:39;37.80;;;17.80;;
27802;SDS011;15182;48.174;11.562;2022-12-18T01:17:13;42.70;;;19.00;;
27802;SDS011;15182;48.174;11.562;2022-12-18T01:19:44;34.07;;;16.83;;
27802;SDS011;15182;48.174;11.562;2022-12-18T01:22:15;35.57;;;17.93;;
27802;SDS011;15182;48.174;11.562;2022-12-18T01:24:48;36.37;;;17.73;;
27802;SDS011;15182;48.174;11.562;2022-12-18T01:27:22;36.37;;;17.60;;
27802;SDS011;15182;48.174;11.562;2022-12-18T01:29:55;41.37;;;18.30;;
27802;SDS011;15182;48.174;11.562;2022-12-18T01:32:26;37.20;;;17.93;;
27802;SDS011;15182;48.174;11.562;2022-12-18T01:34:58;41.00;;;18.97;;
27802;SDS011;15182;48.174;11.562;2022-12-18T01:37:29;41.97;;;19.73;;
27802;SDS011;15182;48.174;11.562;2022-12-18T01:40:00;47.40;;;20.33;;
27802;SDS011;15182;48.174;11.562;2022-12-18T01:42:35;52.67;;;22.10;;
27802;SDS011;15182;48.174;11.562;2022-12-18T01:47:55;40.87;;;18.30;;
27802;SDS011;15182;48.174;11.562;2022-12-18T01:50:30;45.87;;;19.83;;
27802;SDS011;15182;48.174;11.562;2022-12-18T01:53:06;43.77;;;18.33;;
27802;SDS011;15182;48.174;11.562;2022-12-18T01:55:43;43.03;;;20.80;;
27802;SDS011;15182;48.174;11.562;2022-12-18T01:58:18;46.30;;;20.30;;
27802;SDS011;15182;48.174;11.562;2022-12-18T02:00:58;39.17;;;19.43;;
27802;SDS011;15182;48.174;11.562;2022-12-18T02:03:32;41.83;;;20.13;;
27802;SDS011;15182;48.174;11.562;2022-12-18T02:06:07;40.73;;;20.27;;
27802;SDS011;15182;48.174;11.562;2022-12-18T02:08:48;44.73;;;20.47;;
27802;SDS011;15182;48.174;11.562;2022-12-18T02:11:32;43.57;;;20.10;;
27802;SDS011;15182;48.174;11.562;2022-12-18T02:14:13;44.73;;;20.53;;
27802;SDS011;15182;48.174;11.562;2022-12-18T02:16:58;45.87;;;20.57;;
27802;SDS011;15182;48.174;11.562;2022-12-18T02:19:39;47.73;;;19.37;;
27802;SDS011;15182;48.174;11.562;2022-12-18T02:22:24;41.00;;;18.97;;
27802;SDS011;15182;48.174;11.562;2022-12-18T02:25:05;50.47;;;21.53;;
27802;SDS011;15182;48.174;11.562;2022-12-18T02:27:52;47.83;;;20.10;;
27802;SDS011;15182;48.174;11.562;2022-12-18T02:30:30;43.67;;;20.13;;
27802;SDS011;15182;48.174;11.562;2022-12-18T02:33:04;43.70;;;19.27;;
27802;SDS011;15182;48.174;11.562;2022-12-18T02:35:42;35.73;;;19.13;;
27802;SDS011;15182;48.174;11.562;2022-12-18T02:38:17;55.37;;;22.10;;
27802;SDS011;15182;48.174;11.562;2022-12-18T02:40:50;44.80;;;20.90;;
27802;SDS011;15182;48.174;11.562;2022-12-18T02:43:24;43.47;;;19.57;;
27802;SDS011;15182;48.174;11.562;2022-12-18T02:45:58;41.73;;;19.83;;
27802;SDS011;15182;48.174;11.562;2022-12-18T02:48:51;43.20;;;20.37;;
27802;SDS011;15182;48.174;11.562;2022-12-18T02:51:40;48.00;;;21.43;;
27802;SDS011;15182;48.174;11.562;2022-12-18T02:54:20;49.37;;;22.57;;
27802;SDS011;15182;48.174;11.562;2022-12-18T02:57:03;44.67;;;20.87;;
27802;SDS011;15182;48.174;11.562;2022-12-18T02:59:44;47.50;;;20.83;;
27802;SDS011;15182;48.174;11.562;2022-12-18T03:02:27;45.53;;;20.50;;
27802;SDS011;15182;48.174;11.562;2022-12-18T03:05:05;49.13;;;21.63;;
27802;SDS011;15182;48.174;11.562;2022-12-18T03:07:44;45.50;;;20.83;;
27802;SDS011;15182;48.174;11.562;2022-12-18T03:10:24;48.30;;;21.60;;
27802;SDS011;15182;48.174;11.562;2022-12-18T03:13:02;40.33;;;19.47;;
27802;SDS011;15182;48.174;11.562;2022-12-18T03:15:39;43.83;;;20.47;;
27802;SDS011;15182;48.174;11.562;2022-12-18T03:18:16;51.87;;;21.57;;
27802;SDS011;15182;48.174;11.562;2022-12-18T03:20:52;42.30;;;19.37;;
27802;SDS011;15182;48.174;11.562;2022-12-18T03:23:27;43.47;;;20.43;;
27802;SDS011;15182;48.174;11.562;2022-12-18T03:26:05;44.63;;;21.23;;
27802;SDS011;15182;48.174;11.562;2022-12-18T03:28:42;43.13;;;20.80;;
27802;SDS011;15182;48.174;11.562;2022-12-18T03:31:21;45.17;;;20.40;;
27802;SDS011;15182;48.174;11.562;2022-12-18T03:33:59;43.67;;;20.03;;
27802;SDS011;15182;48.174;11.562;2022-12-18T03:36:41;43.80;;;19.67;;
27802;SDS011;15182;48.174;11.562;2022-12-18T03:39:13;44.70;;;20.20;;
27802;SDS011;15182;48.174;11.562;2022-12-18T03:41:55;45.43;;;19.53;;
27802;SDS011;15182;48.174;11.562;2022-12-18T03:44:39;40.87;;;20.10;;
27802;SDS011;15182;48.174;11.562;2022-12-18T03:47:19;39.93;;;19.80;;
27802;SDS011;15182;48.174;11.562;2022-12-18T03:50:03;47.10;;;20.27;;
27802;SDS011;15182;48.174;11.562;2022-12-18T03:52:46;43.33;;;20.43;;
27802;SDS011;15182;48.174;11.562;2022-12-18T03:55:21;42.10;;;19.67;;
27802;SDS011;15182;48.174;11.562;2022-12-18T03:58:00;41.50;;;19.23;;
27802;SDS011;15182;48.174;11.562;2022-12-18T04:00:49;40.23;;;20.57;;
27802;SDS011;15182;48.174;11.562;2022-12-18T04:03:27;39.53;;;18.70;;
27802;SDS011;15182;48.174;11.562;2022-12-18T04:06:01;37.87;;;18.70;;
27802;SDS011;15182;48.174;11.562;2022-12-18T04:08:33;41.13;;;19.60;;
27802;SDS011;15182;48.174;11.562;2022-12-18T04:11:07;43.00;;;20.37;;
27802;SDS011;15182;48.174;11.562;2022-12-18T04:13:38;40.93;;;18.93;;
27802;SDS011;15182;48.174;11.562;2022-12-18T04:16:18;39.10;;;17.97;;
27802;SDS011;15182;48.174;11.562;2022-12-18T04:18:54;40.80;;;19.43;;
27802;SDS011;15182;48.174;11.562;2022-12-18T04:21:31;38.13;;;18.30;;
27802;SDS011;15182;48.174;11.562;2022-12-18T04:24:03;39.93;;;19.03;;
27802;SDS011;15182;48.174;11.562;2022-12-18T04:26:37;41.40;;;18.60;;
27802;SDS011;15182;48.174;11.562;2022-12-18T04:29:15;41.33;;;19.23;;
27802;SDS011;15182;48.174;11.562;2022-12-18T04:31:47;39.83;;;18.77;;
27802;SDS011;15182;48.174;11.562;2022-12-18T04:34:21;38.87;;;18.77;;
27802;SDS011;15182;48.174;11.562;2022-12-18T04:36:54;39.50;;;18.73;;
27802;SDS011;15182;48.174;11.562;2022-12-18T04:39:25;44.87;;;20.13;;
27802;SDS011;15182;48.174;11.562;2022-12-18T04:42:02;52.27;;;23.07;;
27802;SDS011;15182;48.174;11.562;2022-12-18T04:44:33;51.90;;;22.23;;
27802;SDS011;15182;48.174;11.562;2022-12-18T04:47:05;49.03;;;21.60;;
27802;SDS011;15182;48.174;11.562;2022-12-18T04:49:37;50.50;;;21.33;;
27802;SDS011;15182;48.174;11.562;2022-12-18T04:52:08;85.70;;;32.40;;
27802;SDS011;15182;48.174;11.562;2022-12-18T04:54:40;67.40;;;27.27;;
27802;SDS011;15182;48.174;11.562;2022-12-18T04:57:11;54.60;;;25.00;;
27802;SDS011;15182;48.174;11.562;2022-12-18T04:59:45;46.73;;;23.10;;
27802;SDS011;15182;48.174;11.562;2022-12-18T05:02:16;44.13;;;20.30;;
27802;SDS011;15182;48.174;11.562;2022-12-18T05:04:49;43.97;;;20.60;;
27802;SDS011;15182;48.174;11.562;2022-12-18T05:07:20;42.93;;;19.57;;
27802;SDS011;15182;48.174;11.562;2022-12-18T05:09:53;43.93;;;19.20;;
27802;SDS011;15182;48.174;11.562;2022-12-18T05:12:24;36.40;;;18.77;;
27802;SDS011;15182;48.174;11.562;2022-12-18T05:14:55;39.43;;;18.70;;
27802;SDS011;15182;48.174;11.562;2022-12-18T05:17:27;37.57;;;18.10;;
27802;SDS011;15182;48.174;11.562;2022-12-18T05:20:02;39.77;;;18.50;;
27802;SDS011;15182;48.174;11.562;2022-12-18T05:22:34;39.07;;;18.27;;
27802;SDS011;15182;48.174;11.562;2022-12-18T05:25:05;41.57;;;19.70;;
27802;SDS011;15182;48.174;11.562;2022-12-18T05:27:38;40.80;;;18.83;;
27802;SDS011;15182;48.174;11.562;2022-12-18T05:30:11;36.03;;;17.93;;
27802;SDS011;15182;48.174;11.562;2022-12-18T05:32:44;40.67;;;18.57;;
27802;SDS011;15182;48.174;11.562;2022-12-18T05:35:17;39.70;;;18.60;;
27802;SDS011;15182;48.174;11.562;2022-12-18T05:37:48;40.53;;;19.60;;
27802;SDS011;15182;48.174;11.562;2022-12-18T05:40:20;40.50;;;18.53;;
27802;SDS011;15182;48.174;11.562;2022-12-18T05:42:54;39.90;;;19.13;;
27802;SDS011;15182;48.174;11.562;2022-12-18T05:45:27;40.53;;;18.33;;
27802;SDS011;15182;48.174;11.562;2022-12-18T05:47:58;39.30;;;17.93;;
27802;SDS011;15182;48.174;11.562;2022-12-18T05:50:31;40.47;;;18.80;;
27802;SDS011;15182;48.174;11.562;2022-12-18T05:53:04;39.33;;;18.80;;
27802;SDS011;15182;48.174;11.562;2022-12-18T05:55:37;36.30;;;18.00;;
27802;SDS011;15182;48.174;11.562;2022-12-18T05:58:10;37.77;;;18.07;;
27802;SDS011;15182;48.174;11.562;2022-12-18T06:00:44;38.60;;;18.53;;
27802;SDS011;15182;48.174;11.562;2022-12-18T06:03:15;41.17;;;18.80;;
27802;SDS011;15182;48.174;11.562;2022-12-18T06:05:47;34.00;;;17.97;;
27802;SDS011;15182;48.174;11.562;2022-12-18T06:08:19;35.30;;;17.63;;
27802;SDS011;15182;48.174;11.562;2022-12-18T06:10:50;38.40;;;18.03;;
27802;SDS011;15182;48.174;11.562;2022-12-18T06:13:23;44.37;;;20.07;;
27802;SDS011;15182;48.174;11.562;2022-12-18T06:15:54;45.40;;;20.73;;
27802;SDS011;15182;48.174;11.562;2022-12-18T06:18:26;35.73;;;17.47;;
27802;SDS011;15182;48.174;11.562;2022-12-18T06:20:59;49.27;;;21.77;;
27802;SDS011;15182;48.174;11.562;2022-12-18T06:23:30;36.23;;;18.60;;
27802;SDS011;15182;48.174;11.562;2022-12-18T06:26:05;39.80;;;19.80;;
27802;SDS011;15182;48.174;11.562;2022-12-18T06:28:39;41.73;;;18.90;;
27802;SDS011;15182;48.174;11.562;2022-12-18T06:31:11;37.10;;;18.50;;
27802;SDS011;15182;48.174;11.562;2022-12-18T06:33:42;40.03;;;18.00;;
27802;SDS011;15182;48.174;11.562;2022-12-18T06:36:15;35.30;;;17.20;;
27802;SDS011;15182;48.174;11.562;2022-12-18T06:38:47;37.10;;;17.70;;
27802;SDS011;15182;48.174;11.562;2022-12-18T06:41:19;31.57;;;16.67;;
27802;SDS011;15182;48.174;11.562;2022-12-18T06:43:51;36.27;;;18.87;;
27802;SDS011;15182;48.174;11.562;2022-12-18T06:46:22;36.90;;;18.37;;
27802;SDS011;15182;48.174;11.562;2022-12-18T06:48:54;35.87;;;18.10;;
27802;SDS011;15182;48.174;11.562;2022-12-18T06:51:26;33.73;;;17.40;;
27802;SDS011;15182;48.174;11.562;2022-12-18T06:53:57;32.73;;;18.03;;
27802;SDS011;15182;48.174;11.562;2022-12-18T06:56:29;40.77;;;19.37;;
27802;SDS011;15182;48.174;11.562;2022-12-18T06:59:00;33.30;;;17.30;;
27802;SDS011;15182;48.174;11.562;2022-12-18T07:01:32;35.70;;;17.97;;
27802;SDS011;15182;48.174;11.562;2022-12-18T07:04:03;37.50;;;17.67;;
27802;SDS011;15182;48.174;11.562;2022-12-18T07:06:36;31.57;;;16.80;;
27802;SDS011;15182;48.174;11.562;2022-12-18T07:09:08;29.70;;;16.43;;
27802;SDS011;15182;48.174;11.562;2022-12-18T07:11:39;30.90;;;16.23;;
27802;SDS011;15182;48.174;11.562;2022-12-18T07:14:13;27.63;;;15.63;;
27802;SDS011;15182;48.174;11.562;2022-12-18T07:16:44;28.37;;;15.20;;
27802;SDS011;15182;48.174;11.562;2022-12-18T07:19:16;28.70;;;15.80;;
27802;SDS011;15182;48.174;11.562;2022-12-18T07:21:52;30.37;;;17.23;;
27802;SDS011;15182;48.174;11.562;2022-12-18T07:24:23;34.57;;;16.93;;
27802;SDS011;15182;48.174;11.562;2022-12-18T07:26:55;34.37;;;17.00;;
27802;SDS011;15182;48.174;11.562;2022-12-18T07:29:26;34.40;;;17.43;;
27802;SDS011;15182;48.174;11.562;2022-12-18T07:31:57;34.77;;;16.90;;
27802;SDS011;15182;48.174;11.562;2022-12-18T07:34:29;31.00;;;17.27;;
27802;SDS011;15182;48.174;11.562;2022-12-18T07:37:01;32.93;;;17.03;;
27802;SDS011;15182;48.174;11.562;2022-12-18T07:39:33;29.90;;;15.73;;
27802;SDS011;15182;48.174;11.562;2022-12-18T07:42:08;31.47;;;17.47;;
27802;SDS011;15182;48.174;11.562;2022-12-18T07:44:57;26.17;;;15.60;;
27802;SDS011;15182;48.174;11.562;2022-12-18T07:47:33;30.87;;;16.17;;
27802;SDS011;15182;48.174;11.562;2022-12-18T07:50:07;34.23;;;17.03;;
27802;SDS011;15182;48.174;11.562;2022-12-18T07:52:40;33.20;;;16.23;;
27802;SDS011;15182;48.174;11.562;2022-12-18T07:55:12;31.77;;;15.70;;
27802;SDS011;15182;48.174;11.562;2022-12-18T07:57:44;30.30;;;17.00;;
27802;SDS011;15182;48.174;11.562;2022-12-18T08:00:15;28.00;;;16.60;;
27802;SDS011;15182;48.174;11.562;2022-12-18T08:02:46;35.73;;;17.10;;
27802;SDS011;15182;48.174;11.562;2022-12-18T08:05:18;33.07;;;16.93;;
27802;SDS011;15182;48.174;11.562;2022-12-18T08:07:50;33.10;;;16.47;;
27802;SDS011;15182;48.174;11.562;2022-12-18T08:10:22;35.20;;;18.00;;
27802;SDS011;15182;48.174;11.562;2022-12-18T08:12:53;40.03;;;18.50;;
27802;SDS011;15182;48.174;11.562;2022-12-18T08:15:24;36.27;;;17.30;;
27802;SDS011;15182;48.174;11.562;2022-12-18T08:17:56;35.77;;;17.53;;
27802;SDS011;15182;48.174;11.562;2022-12-18T08:20:27;36.53;;;16.90;;
27802;SDS011;15182;48.174;11.562;2022-12-18T08:22:59;35.30;;;18.13;;
27802;SDS011;15182;48.174;11.562;2022-12-18T08:25:31;32.43;;;17.17;;
27802;SDS011;15182;48.174;11.562;2022-12-18T08:28:02;31.23;;;16.60;;
27802;SDS011;15182;48.174;11.562;2022-12-18T08:30:34;36.27;;;17.60;;
27802;SDS011;15182;48.174;11.562;2022-12-18T08:33:06;34.23;;;18.27;;
27802;SDS011;15182;48.174;11.562;2022-12-18T08:35:37;35.97;;;16.60;;
27802;SDS011;15182;48.174;11.562;2022-12-18T08:38:10;36.87;;;18.80;;
27802;SDS011;15182;48.174;11.562;2022-12-18T08:40:41;37.77;;;18.23;;
27802;SDS011;15182;48.174;11.562;2022-12-18T08:43:13;30.13;;;16.77;;
27802;SDS011;15182;48.174;11.562;2022-12-18T08:46:02;34.63;;;18.03;;
27802;SDS011;15182;48.174;11.562;2022-12-18T08:48:34;31.77;;;16.33;;
27802;SDS011;15182;48.174;11.562;2022-12-18T08:51:06;32.23;;;16.63;;
27802;SDS011;15182;48.174;11.562;2022-12-18T08:53:40;30.07;;;16.23;;
27802;SDS011;15182;48.174;11.562;2022-12-18T08:56:12;32.73;;;16.50;;
27802;SDS011;15182;48.174;11.562;2022-12-18T08:58:50;29.10;;;16.30;;
27802;SDS011;15182;48.174;11.562;2022-12-18T09:01:21;32.73;;;16.70;;
27802;SDS011;15182;48.174;11.562;2022-12-18T09:03:52;37.57;;;17.20;;
27802;SDS011;15182;48.174;11.562;2022-12-18T09:06:24;30.03;;;16.57;;
27802;SDS011;15182;48.174;11.562;2022-12-18T09:08:57;34.83;;;17.00;;
27802;SDS011;15182;48.174;11.562;2022-12-18T09:11:29;34.60;;;16.83;;
27802;SDS011;15182;48.174;11.562;2022-12-18T09:14:01;34.00;;;17.83;;
27802;SDS011;15182;48.174;11.562;2022-12-18T09:16:32;34.47;;;16.53;;
27802;SDS011;15182;48.174;11.562;2022-12-18T09:19:06;31.90;;;16.73;;
27802;SDS011;15182;48.174;11.562;2022-12-18T09:21:38;28.80;;;15.37;;
27802;SDS011;15182;48.174;11.562;2022-12-18T09:24:11;33.77;;;16.47;;
27802;SDS011;15182;48.174;11.562;2022-12-18T09:26:43;36.30;;;17.93;;
27802;SDS011;15182;48.174;11.562;2022-12-18T09:29:15;44.57;;;21.00;;
27802;SDS011;15182;48.174;11.562;2022-12-18T09:31:46;41.03;;;20.43;;
27802;SDS011;15182;48.174;11.562;2022-12-18T09:34:18;37.70;;;18.00;;
27802;SDS011;15182;48.174;11.562;2022-12-18T09:36:51;40.90;;;18.13;;
27802;SDS011;15182;48.174;11.562;2022-12-18T09:39:24;35.63;;;17.37;;
27802;SDS011;15182;48.174;11.562;2022-12-18T09:41:56;37.90;;;18.00;;
27802;SDS011;15182;48.174;11.562;2022-12-18T09:44:29;32.33;;;15.83;;
27802;SDS011;15182;48.174;11.562;2022-12-18T09:47:10;35.57;;;16.30;;
27802;SDS011;15182;48.174;11.562;2022-12-18T09:49:46;28.83;;;16.37;;
27802;SDS011;15182;48.174;11.562;2022-12-18T09:52:23;35.33;;;16.33;;
27802;SDS011;15182;48.174;11.562;2022-12-18T09:55:01;34.20;;;16.60;;
27802;SDS011;15182;48.174;11.562;2022-12-18T09:57:45;28.33;;;16.20;;
27802;SDS011;15182;48.174;11.562;2022-12-18T10:00:24;32.47;;;16.30;;
27802;SDS011;15182;48.174;11.562;2022-12-18T10:02:58;33.70;;;16.57;;
27802;SDS011;15182;48.174;11.562;2022-12-18T10:05:36;35.90;;;16.97;;
27802;SDS011;15182;48.174;11.562;2022-12-18T10:08:13;35.70;;;17.30;;
27802;SDS011;15182;48.174;11.562;2022-12-18T10:10:56;33.87;;;16.90;;
27802;SDS011;15182;48.174;11.562;2022-12-18T10:13:37;32.80;;;16.63;;
27802;SDS011;15182;48.174;11.562;2022-12-18T10:16:17;33.73;;;16.93;;
27802;SDS011;15182;48.174;11.562;2022-12-18T10:19:00;29.87;;;16.53;;
27802;SDS011;15182;48.174;11.562;2022-12-18T10:21:44;33.47;;;16.00;;
27802;SDS011;15182;48.174;11.562;2022-12-18T10:24:24;31.87;;;17.73;;
27802;SDS011;15182;48.174;11.562;2022-12-18T10:27:08;31.53;;;16.50;;
27802;SDS011;15182;48.174;11.562;2022-12-18T10:29:44;34.50;;;17.70;;
27802;SDS011;15182;48.174;11.562;2022-12-18T10:32:18;36.63;;;18.40;;
27802;SDS011;15182;48.174;11.562;2022-12-18T10:34:52;35.93;;;17.80;;
27802;SDS011;15182;48.174;11.562;2022-12-18T10:37:25;36.73;;;19.13;;
27802;SDS011;15182;48.174;11.562;2022-12-18T10:40:11;36.53;;;17.30;;
27802;SDS011;15182;48.174;11.562;2022-12-18T10:42:47;46.97;;;21.37;;
27802;SDS011;15182;48.174;11.562;2022-12-18T10:45:40;51.33;;;21.97;;
27802;SDS011;15182;48.174;11.562;2022-12-18T10:48:25;42.77;;;18.37;;
27802;SDS011;15182;48.174;11.562;2022-12-18T10:51:00;48.60;;;21.83;;
27802;SDS011;15182;48.174;11.562;2022-12-18T10:53:33;53.90;;;24.90;;
27802;SDS011;15182;48.174;11.562;2022-12-18T10:56:09;68.17;;;29.67;;
27802;SDS011;15182;48.174;11.562;2022-12-18T10:58:41;54.10;;;24.20;;
27802;SDS011;15182;48.174;11.562;2022-12-18T11:01:22;38.73;;;19.37;;
27802;SDS011;15182;48.174;11.562;2022-12-18T11:04:01;37.23;;;18.87;;
27802;SDS011;15182;48.174;11.562;2022-12-18T11:06:36;46.37;;;21.37;;
27802;SDS011;15182;48.174;11.562;2022-12-18T11:09:24;53.80;;;23.13;;
27802;SDS011;15182;48.174;11.562;2022-12-18T11:11:58;45.40;;;21.20;;
27802;SDS011;15182;48.174;11.562;2022-12-18T11:14:41;57.33;;;23.23;;
27802;SDS011;15182;48.174;11.562;2022-12-18T11:17:18;74.53;;;28.87;;
27802;SDS011;15182;48.174;11.562;2022-12-18T11:19:52;86.07;;;29.93;;
27802;SDS011;15182;48.174;11.562;2022-12-18T11:22:25;80.83;;;29.77;;
27802;SDS011;15182;48.174;11.562;2022-12-18T11:25:01;59.13;;;25.07;;
27802;SDS011;15182;48.174;11.562;2022-12-18T11:27:51;38.63;;;19.33;;
27802;SDS011;15182;48.174;11.562;2022-12-18T11:30:26;35.20;;;17.30;;
27802;SDS011;15182;48.174;11.562;2022-12-18T11:33:02;33.67;;;16.17;;
27802;SDS011;15182;48.174;11.562;2022-12-18T11:35:40;31.63;;;16.30;;
27802;SDS011;15182;48.174;11.562;2022-12-18T11:38:19;33.20;;;16.57;;
27802;SDS011;15182;48.174;11.562;2022-12-18T11:40:55;32.50;;;16.50;;
27802;SDS011;15182;48.174;11.562;2022-12-18T11:43:33;32.40;;;15.57;;
27802;SDS011;15182;48.174;11.562;2022-12-18T11:46:13;34.83;;;17.70;;
27802;SDS011;15182;48.174;11.562;2022-12-18T11:48:52;26.43;;;16.00;;
27802;SDS011;15182;48.174;11.562;2022-12-18T11:51:32;29.77;;;15.17;;
27802;SDS011;15182;48.174;11.562;2022-12-18T11:54:09;29.93;;;16.90;;
27802;SDS011;15182;48.174;11.562;2022-12-18T11:56:45;34.17;;;17.27;;
27802;SDS011;15182;48.174;11.562;2022-12-18T11:59:23;33.10;;;16.47;;
27802;SDS011;15182;48.174;11.562;2022-12-18T12:02:14;24.87;;;15.03;;
27802;SDS011;15182;48.174;11.562;2022-12-18T12:05:12;31.23;;;16.20;;
27802;SDS011;15182;48.174;11.562;2022-12-18T12:07:54;29.63;;;15.77;;
27802;SDS011;15182;48.174;11.562;2022-12-18T12:10:33;27.77;;;15.37;;
27802;SDS011;15182;48.174;11.562;2022-12-18T12:13:19;29.87;;;15.23;;
27802;SDS011;15182;48.174;11.562;2022-12-18T12:16:04;29.43;;;15.50;;
27802;SDS011;15182;48.174;11.562;2022-12-18T12:18:46;28.17;;;15.20;;
27802;SDS011;15182;48.174;11.562;2022-12-18T12:21:28;28.27;;;15.50;;
27802;SDS011;15182;48.174;11.562;2022-12-18T12:24:04;24.17;;;15.03;;
27802;SDS011;15182;48.174;11.562;2022-12-18T12:26:50;25.77;;;14.10;;
27802;SDS011;15182;48.174;11.562;2022-12-18T12:29:34;27.60;;;15.37;;
27802;SDS011;15182;48.174;11.562;2022-12-18T12:32:14;25.20;;;13.63;;
27802;SDS011;15182;48.174;11.562;2022-12-18T12:35:02;24.13;;;14.67;;
27802;SDS011;15182;48.174;11.562;2022-12-18T12:37:44;20.63;;;13.33;;
27802;SDS011;15182;48.174;11.562;2022-12-18T12:40:23;26.67;;;14.47;;
27802;SDS011;15182;48.174;11.562;2022-12-18T12:42:58;27.13;;;14.97;;
27802;SDS011;15182;48.174;11.562;2022-12-18T12:45:42;29.73;;;15.70;;
27802;SDS011;15182;48.174;11.562;2022-12-18T12:48:17;25.73;;;15.27;;
27802;SDS011;15182;48.174;11.562;2022-12-18T12:50:56;26.60;;;15.03;;
27802;SDS011;15182;48.174;11.562;2022-12-18T12:53:30;28.93;;;15.60;;
27802;SDS011;15182;48.174;11.562;2022-12-18T12:56:03;29.20;;;14.97;;
27802;SDS011;15182;48.174;11.562;2022-12-18T12:58:40;27.13;;;14.43;;
27802;SDS011;15182;48.174;11.562;2022-12-18T13:01:18;27.60;;;14.97;;
27802;SDS011;15182;48.174;11.562;2022-12-18T13:03:57;31.67;;;15.40;;
27802;SDS011;15182;48.174;11.562;2022-12-18T13:06:42;25.50;;;14.73;;
27802;SDS011;15182;48.174;11.562;2022-12-18T13:09:17;29.30;;;15.20;;
27802;SDS011;15182;48.174;11.562;2022-12-18T13:11:48;27.70;;;15.20;;
27802;SDS011;15182;48.174;11.562;2022-12-18T13:14:38;34.77;;;15.17;;
27802;SDS011;15182;48.174;11.562;2022-12-18T13:20:04;28.20;;;16.83;;
27802;SDS011;15182;48.174;11.562;2022-12-18T13:22:42;23.13;;;14.27;;
27802;SDS011;15182;48.174;11.562;2022-12-18T13:25:30;27.60;;;16.33;;
27802;SDS011;15182;48.174;11.562;2022-12-18T13:28:08;27.13;;;14.73;;
27802;SDS011;15182;48.174;11.562;2022-12-18T13:30:53;27.43;;;14.57;;
27802;SDS011;15182;48.174;11.562;2022-12-18T13:36:16;25.03;;;14.17;;
27802;SDS011;15182;48.174;11.562;2022-12-18T13:39:10;30.07;;;15.23;;
27802;SDS011;15182;48.174;11.562;2022-12-18T13:41:52;30.10;;;15.43;;
27802;SDS011;15182;48.174;11.562;2022-12-18T13:45:42;26.13;;;14.90;;
27802;SDS011;15182;48.174;11.562;2022-12-18T13:48:19;25.40;;;15.30;;
27802;SDS011;15182;48.174;11.562;2022-12-18T13:50:57;29.40;;;14.77;;
27802;SDS011;15182;48.174;11.562;2022-12-18T13:53:33;28.47;;;15.20;;
27802;SDS011;15182;48.174;11.562;2022-12-18T13:56:07;26.37;;;15.73;;
27802;SDS011;15182;48.174;11.562;2022-12-18T13:59:06;27.07;;;14.50;;
27802;SDS011;15182;48.174;11.562;2022-12-18T14:01:53;25.43;;;14.57;;
27802;SDS011;15182;48.174;11.562;2022-12-18T14:04:27;30.03;;;15.57;;
27802;SDS011;15182;48.174;11.562;2022-12-18T14:07:01;30.77;;;15.07;;
27802;SDS011;15182;48.174;11.562;2022-12-18T14:09:39;33.07;;;16.53;;
27802;SDS011;15182;48.174;11.562;2022-12-18T14:12:16;27.93;;;14.60;;
27802;SDS011;15182;48.174;11.562;2022-12-18T14:15:10;23.13;;;14.07;;
27802;SDS011;15182;48.174;11.562;2022-12-18T14:17:52;26.00;;;14.47;;
27802;SDS011;15182;48.174;11.562;2022-12-18T14:20:26;28.87;;;15.57;;
27802;SDS011;15182;48.174;11.562;2022-12-18T14:22:59;26.97;;;14.80;;
27802;SDS011;15182;48.174;11.562;2022-12-18T14:25:31;28.03;;;15.20;;
27802;SDS011;15182;48.174;11.562;2022-12-18T14:28:08;29.13;;;15.33;;
27802;SDS011;15182;48.174;11.562;2022-12-18T14:30:45;28.23;;;16.07;;
27802;SDS011;15182;48.174;11.562;2022-12-18T14:33:19;29.40;;;16.00;;
27802;SDS011;15182;48.174;11.562;2022-12-18T14:35:53;25.27;;;15.17;;
27802;SDS011;15182;48.174;11.562;2022-12-18T14:38:27;27.57;;;15.37;;
27802;SDS011;15182;48.174;11.562;2022-12-18T14:41:02;26.50;;;15.63;;
27802;SDS011;15182;48.174;11.562;2022-12-18T14:43:39;29.03;;;15.47;;
27802;SDS011;15182;48.174;11.562;2022-12-18T14:46:27;30.13;;;15.53;;
27802;SDS011;15182;48.174;11.562;2022-12-18T14:48:59;27.17;;;15.37;;
27802;SDS011;15182;48.174;11.562;2022-12-18T14:51:46;29.70;;;14.53;;
27802;SDS011;15182;48.174;11.562;2022-12-18T14:54:21;25.57;;;15.30;;
27802;SDS011;15182;48.174;11.562;2022-12-18T14:56:55;29.90;;;16.23;;
27802;SDS011;15182;48.174;11.562;2022-12-18T14:59:32;26.63;;;15.93;;
27802;SDS011;15182;48.174;11.562;2022-12-18T15:02:04;28.63;;;15.57;;
27802;SDS011;15182;48.174;11.562;2022-12-18T15:04:45;33.97;;;18.67;;
27802;SDS011;15182;48.174;11.562;2022-12-18T15:07:20;35.77;;;19.13;;